sensor_id;sensor_type;location;lat;lon;timestamp;P1;durP1;ratioP1;P2;durP2;ratioP2
81697;SDS011;71109;52.514;5.708;2023-12-22T00:01:10;12.68;;;1.85;;
81697;SDS011;71109;52.514;5.708;2023-12-22T00:03:37;9.95;;;1.67;;
81697;SDS011;71109;52.514;5.708;2023-12-22T00:06:02;19.00;;;2.72;;
81697;SDS011;71109;52.514;5.708;2023-12-22T00:08:28;7.93;;;1.05;;
81697;SDS011;71109;52.514;5.708;2023-12-22T00:10:53;8.20;;;1.53;;
81697;SDS011;71109;52.514;5.708;2023-12-22T00:13:18;8.77;;;1.53;;
81697;SDS011;71109;52.514;5.708;2023-12-22T00:15:44;13.15;;;1.52;;
81697;SDS011;71109;52.514;5.708;2023-12-22T00:18:09;9.25;;;1.42;;
81697;SDS011;71109;52.514;5.708;2023-12-22T00:20:35;10.68;;;1.58;;
81697;SDS011;71109;52.514;5.708;2023-12-22T00:23:00;8.65;;;1.15;;
81697;SDS011;71109;52.514;5.708;2023-12-22T00:25:25;9.57;;;2.03;;
81697;SDS011;71109;52.514;5.708;2023-12-22T00:27:51;22.30;;;2.45;;
81697;SDS011;71109;52.514;5.708;2023-12-22T00:30:16;16.30;;;2.03;;
81697;SDS011;71109;52.514;5.708;2023-12-22T00:32:42;15.00;;;1.92;;
81697;SDS011;71109;52.514;5.708;2023-12-22T00:35:07;8.32;;;2.58;;
81697;SDS011;71109;52.514;5.708;2023-12-22T00:37:33;11.60;;;2.72;;
81697;SDS011;71109;52.514;5.708;2023-12-22T00:39:58;10.63;;;1.70;;
81697;SDS011;71109;52.514;5.708;2023-12-22T00:42:23;19.85;;;2.83;;
81697;SDS011;71109;52.514;5.708;2023-12-22T00:44:49;10.10;;;1.93;;
81697;SDS011;71109;52.514;5.708;2023-12-22T00:47:14;14.63;;;2.13;;
81697;SDS011;71109;52.514;5.708;2023-12-22T00:49:39;11.03;;;2.10;;
81697;SDS011;71109;52.514;5.708;2023-12-22T00:52:05;8.77;;;1.63;;
81697;SDS011;71109;52.514;5.708;2023-12-22T00:54:30;6.95;;;2.58;;
81697;SDS011;71109;52.514;5.708;2023-12-22T00:56:57;32.10;;;3.00;;
81697;SDS011;71109;52.514;5.708;2023-12-22T00:59:23;14.90;;;2.35;;
81697;SDS011;71109;52.514;5.708;2023-12-22T01:01:48;7.57;;;1.75;;
81697;SDS011;71109;52.514;5.708;2023-12-22T01:04:14;15.52;;;1.70;;
81697;SDS011;71109;52.514;5.708;2023-12-22T01:06:39;12.27;;;2.03;;
81697;SDS011;71109;52.514;5.708;2023-12-22T01:09:05;16.55;;;2.28;;
81697;SDS011;71109;52.514;5.708;2023-12-22T01:11:30;8.33;;;1.70;;
81697;SDS011;71109;52.514;5.708;2023-12-22T01:13:55;10.27;;;2.03;;
81697;SDS011;71109;52.514;5.708;2023-12-22T01:16:21;14.70;;;1.80;;
81697;SDS011;71109;52.514;5.708;2023-12-22T01:18:47;16.08;;;2.03;;
81697;SDS011;71109;52.514;5.708;2023-12-22T01:21:13;11.48;;;1.95;;
81697;SDS011;71109;52.514;5.708;2023-12-22T01:23:38;12.07;;;2.33;;
81697;SDS011;71109;52.514;5.708;2023-12-22T01:26:04;9.15;;;1.90;;
81697;SDS011;71109;52.514;5.708;2023-12-22T01:28:29;11.35;;;1.73;;
81697;SDS011;71109;52.514;5.708;2023-12-22T01:30:54;9.18;;;2.17;;
81697;SDS011;71109;52.514;5.708;2023-12-22T01:33:20;16.03;;;2.70;;
81697;SDS011;71109;52.514;5.708;2023-12-22T01:35:45;8.87;;;1.87;;
81697;SDS011;71109;52.514;5.708;2023-12-22T01:38:10;13.70;;;2.90;;
81697;SDS011;71109;52.514;5.708;2023-12-22T01:40:36;16.17;;;2.38;;
81697;SDS011;71109;52.514;5.708;2023-12-22T01:43:01;6.07;;;0.80;;
81697;SDS011;71109;52.514;5.708;2023-12-22T01:45:27;3.80;;;0.63;;
81697;SDS011;71109;52.514;5.708;2023-12-22T01:47:52;1.80;;;0.53;;
81697;SDS011;71109;52.514;5.708;2023-12-22T01:50:19;3.47;;;0.40;;
81697;SDS011;71109;52.514;5.708;2023-12-22T01:52:45;1.95;;;0.50;;
81697;SDS011;71109;52.514;5.708;2023-12-22T01:55:10;1.38;;;0.50;;
81697;SDS011;71109;52.514;5.708;2023-12-22T01:57:37;0.75;;;0.25;;
81697;SDS011;71109;52.514;5.708;2023-12-22T02:00:03;6.82;;;0.70;;
81697;SDS011;71109;52.514;5.708;2023-12-22T02:02:29;4.15;;;0.85;;
81697;SDS011;71109;52.514;5.708;2023-12-22T02:04:55;6.47;;;0.52;;
81697;SDS011;71109;52.514;5.708;2023-12-22T02:07:22;6.95;;;1.13;;
81697;SDS011;71109;52.514;5.708;2023-12-22T02:09:47;3.30;;;0.60;;
81697;SDS011;71109;52.514;5.708;2023-12-22T02:12:12;2.87;;;0.57;;
81697;SDS011;71109;52.514;5.708;2023-12-22T02:14:38;7.57;;;0.85;;
81697;SDS011;71109;52.514;5.708;2023-12-22T02:19:47;5.32;;;1.42;;
81697;SDS011;71109;52.514;5.708;2023-12-22T02:22:13;10.40;;;1.50;;
81697;SDS011;71109;52.514;5.708;2023-12-22T02:24:38;7.70;;;1.40;;
81697;SDS011;71109;52.514;5.708;2023-12-22T02:28:06;7.07;;;1.10;;
81697;SDS011;71109;52.514;5.708;2023-12-22T02:30:24;6.97;;;1.20;;
81697;SDS011;71109;52.514;5.708;2023-12-22T02:32:51;8.20;;;1.10;;
81697;SDS011;71109;52.514;5.708;2023-12-22T02:35:20;7.25;;;0.90;;
81697;SDS011;71109;52.514;5.708;2023-12-22T02:37:46;7.00;;;1.33;;
81697;SDS011;71109;52.514;5.708;2023-12-22T02:40:13;10.80;;;1.35;;
81697;SDS011;71109;52.514;5.708;2023-12-22T02:42:39;7.05;;;2.53;;
81697;SDS011;71109;52.514;5.708;2023-12-22T02:45:05;10.27;;;2.08;;
81697;SDS011;71109;52.514;5.708;2023-12-22T02:47:31;9.55;;;1.65;;
81697;SDS011;71109;52.514;5.708;2023-12-22T02:49:58;8.65;;;1.45;;
81697;SDS011;71109;52.514;5.708;2023-12-22T02:52:23;11.75;;;1.60;;
81697;SDS011;71109;52.514;5.708;2023-12-22T02:54:49;7.43;;;1.48;;
81697;SDS011;71109;52.514;5.708;2023-12-22T02:57:14;8.45;;;1.60;;
81697;SDS011;71109;52.514;5.708;2023-12-22T02:59:39;8.53;;;1.70;;
81697;SDS011;71109;52.514;5.708;2023-12-22T03:02:05;10.55;;;1.17;;
81697;SDS011;71109;52.514;5.708;2023-12-22T03:04:30;8.52;;;1.75;;
81697;SDS011;71109;52.514;5.708;2023-12-22T03:06:55;12.73;;;1.63;;
81697;SDS011;71109;52.514;5.708;2023-12-22T03:09:21;11.00;;;2.25;;
81697;SDS011;71109;52.514;5.708;2023-12-22T03:11:47;13.95;;;2.03;;
81697;SDS011;71109;52.514;5.708;2023-12-22T03:14:12;16.58;;;2.22;;
81697;SDS011;71109;52.514;5.708;2023-12-22T03:16:38;13.40;;;2.72;;
81697;SDS011;71109;52.514;5.708;2023-12-22T03:19:03;6.78;;;1.42;;
81697;SDS011;71109;52.514;5.708;2023-12-22T03:21:28;15.63;;;2.65;;
81697;SDS011;71109;52.514;5.708;2023-12-22T03:23:54;5.13;;;1.00;;
81697;SDS011;71109;52.514;5.708;2023-12-22T03:26:19;4.30;;;0.70;;
81697;SDS011;71109;52.514;5.708;2023-12-22T03:28:44;12.67;;;1.67;;
81697;SDS011;71109;52.514;5.708;2023-12-22T03:31:10;4.20;;;1.20;;
81697;SDS011;71109;52.514;5.708;2023-12-22T03:33:35;6.40;;;1.00;;
81697;SDS011;71109;52.514;5.708;2023-12-22T03:36:01;8.17;;;1.80;;
81697;SDS011;71109;52.514;5.708;2023-12-22T03:38:26;12.57;;;1.90;;
81697;SDS011;71109;52.514;5.708;2023-12-22T03:40:51;13.97;;;1.90;;
81697;SDS011;71109;52.514;5.708;2023-12-22T03:43:17;12.03;;;2.30;;
81697;SDS011;71109;52.514;5.708;2023-12-22T03:45:42;9.87;;;1.87;;
81697;SDS011;71109;52.514;5.708;2023-12-22T03:48:07;9.93;;;1.57;;
81697;SDS011;71109;52.514;5.708;2023-12-22T03:50:32;12.53;;;1.80;;
81697;SDS011;71109;52.514;5.708;2023-12-22T03:52:58;16.40;;;3.50;;
81697;SDS011;71109;52.514;5.708;2023-12-22T03:55:23;11.83;;;1.70;;
81697;SDS011;71109;52.514;5.708;2023-12-22T03:57:49;15.23;;;1.52;;
81697;SDS011;71109;52.514;5.708;2023-12-22T04:00:14;14.03;;;1.73;;
81697;SDS011;71109;52.514;5.708;2023-12-22T04:02:41;11.35;;;2.08;;
81697;SDS011;71109;52.514;5.708;2023-12-22T04:05:07;9.63;;;2.40;;
81697;SDS011;71109;52.514;5.708;2023-12-22T04:07:32;11.15;;;1.92;;
81697;SDS011;71109;52.514;5.708;2023-12-22T04:09:57;10.83;;;2.07;;
81697;SDS011;71109;52.514;5.708;2023-12-22T04:12:23;16.50;;;2.28;;
81697;SDS011;71109;52.514;5.708;2023-12-22T04:14:48;20.97;;;2.10;;
81697;SDS011;71109;52.514;5.708;2023-12-22T04:17:13;8.70;;;1.70;;
81697;SDS011;71109;52.514;5.708;2023-12-22T04:19:39;13.17;;;1.90;;
81697;SDS011;71109;52.514;5.708;2023-12-22T04:22:04;16.97;;;2.43;;
81697;SDS011;71109;52.514;5.708;2023-12-22T04:24:29;29.90;;;3.17;;
81697;SDS011;71109;52.514;5.708;2023-12-22T04:26:55;8.87;;;1.97;;
81697;SDS011;71109;52.514;5.708;2023-12-22T04:29:20;11.27;;;2.60;;
81697;SDS011;71109;52.514;5.708;2023-12-22T04:31:45;8.68;;;2.17;;
81697;SDS011;71109;52.514;5.708;2023-12-22T04:34:12;15.23;;;1.70;;
81697;SDS011;71109;52.514;5.708;2023-12-22T04:36:38;11.57;;;1.85;;
81697;SDS011;71109;52.514;5.708;2023-12-22T04:39:04;7.78;;;1.92;;
81697;SDS011;71109;52.514;5.708;2023-12-22T04:41:29;12.23;;;1.53;;
81697;SDS011;71109;52.514;5.708;2023-12-22T04:43:55;12.63;;;1.60;;
81697;SDS011;71109;52.514;5.708;2023-12-22T04:46:20;11.23;;;2.17;;
81697;SDS011;71109;52.514;5.708;2023-12-22T04:48:45;7.50;;;2.13;;
81697;SDS011;71109;52.514;5.708;2023-12-22T04:51:11;13.90;;;1.52;;
81697;SDS011;71109;52.514;5.708;2023-12-22T04:53:36;8.53;;;1.47;;
81697;SDS011;71109;52.514;5.708;2023-12-22T04:56:01;12.45;;;1.50;;
81697;SDS011;71109;52.514;5.708;2023-12-22T04:58:27;4.72;;;1.20;;
81697;SDS011;71109;52.514;5.708;2023-12-22T05:00:52;9.35;;;1.13;;
81697;SDS011;71109;52.514;5.708;2023-12-22T05:03:17;8.93;;;1.53;;
81697;SDS011;71109;52.514;5.708;2023-12-22T05:05:43;7.33;;;1.30;;
81697;SDS011;71109;52.514;5.708;2023-12-22T05:08:08;10.70;;;1.73;;
81697;SDS011;71109;52.514;5.708;2023-12-22T05:10:33;9.50;;;1.27;;
81697;SDS011;71109;52.514;5.708;2023-12-22T05:12:58;14.40;;;2.03;;
81697;SDS011;71109;52.514;5.708;2023-12-22T05:15:24;10.30;;;1.27;;
81697;SDS011;71109;52.514;5.708;2023-12-22T05:17:49;13.07;;;1.73;;
81697;SDS011;71109;52.514;5.708;2023-12-22T05:20:14;16.17;;;2.07;;
81697;SDS011;71109;52.514;5.708;2023-12-22T05:22:40;10.93;;;1.92;;
81697;SDS011;71109;52.514;5.708;2023-12-22T05:25:05;7.63;;;1.48;;
81697;SDS011;71109;52.514;5.708;2023-12-22T05:27:31;16.00;;;2.55;;
81697;SDS011;71109;52.514;5.708;2023-12-22T05:29:56;10.60;;;1.57;;
81697;SDS011;71109;52.514;5.708;2023-12-22T05:32:26;14.48;;;3.40;;
81697;SDS011;71109;52.514;5.708;2023-12-22T05:34:52;15.88;;;2.55;;
81697;SDS011;71109;52.514;5.708;2023-12-22T05:37:17;22.63;;;4.10;;
81697;SDS011;71109;52.514;5.708;2023-12-22T05:39:43;13.85;;;2.53;;
81697;SDS011;71109;52.514;5.708;2023-12-22T05:42:10;18.17;;;2.60;;
81697;SDS011;71109;52.514;5.708;2023-12-22T05:44:35;14.40;;;2.83;;
81697;SDS011;71109;52.514;5.708;2023-12-22T05:47:01;12.18;;;2.85;;
81697;SDS011;71109;52.514;5.708;2023-12-22T05:49:26;7.65;;;1.70;;
81697;SDS011;71109;52.514;5.708;2023-12-22T05:51:52;15.43;;;2.85;;
81697;SDS011;71109;52.514;5.708;2023-12-22T05:54:17;23.35;;;2.72;;
81697;SDS011;71109;52.514;5.708;2023-12-22T05:56:44;16.27;;;2.90;;
81697;SDS011;71109;52.514;5.708;2023-12-22T05:59:10;23.25;;;3.63;;
81697;SDS011;71109;52.514;5.708;2023-12-22T06:01:35;22.58;;;2.90;;
81697;SDS011;71109;52.514;5.708;2023-12-22T06:04:01;21.10;;;3.20;;
81697;SDS011;71109;52.514;5.708;2023-12-22T06:06:27;22.42;;;3.55;;
81697;SDS011;71109;52.514;5.708;2023-12-22T06:08:52;22.23;;;2.95;;
81697;SDS011;71109;52.514;5.708;2023-12-22T06:11:18;14.05;;;3.00;;
81697;SDS011;71109;52.514;5.708;2023-12-22T06:13:43;22.77;;;2.97;;
81697;SDS011;71109;52.514;5.708;2023-12-22T06:16:12;10.68;;;2.40;;
81697;SDS011;71109;52.514;5.708;2023-12-22T06:18:39;14.30;;;2.97;;
81697;SDS011;71109;52.514;5.708;2023-12-22T06:21:05;14.98;;;1.80;;
81697;SDS011;71109;52.514;5.708;2023-12-22T06:23:31;11.63;;;1.45;;
81697;SDS011;71109;52.514;5.708;2023-12-22T06:25:57;8.07;;;1.42;;
81697;SDS011;71109;52.514;5.708;2023-12-22T06:28:22;9.53;;;1.50;;
81697;SDS011;71109;52.514;5.708;2023-12-22T06:30:47;8.20;;;1.43;;
81697;SDS011;71109;52.514;5.708;2023-12-22T06:33:13;9.57;;;1.20;;
81697;SDS011;71109;52.514;5.708;2023-12-22T06:35:38;3.15;;;0.80;;
81697;SDS011;71109;52.514;5.708;2023-12-22T06:38:06;5.43;;;0.90;;
81697;SDS011;71109;52.514;5.708;2023-12-22T06:40:31;4.35;;;1.35;;
81697;SDS011;71109;52.514;5.708;2023-12-22T06:42:57;5.88;;;1.40;;
81697;SDS011;71109;52.514;5.708;2023-12-22T06:45:22;10.67;;;1.53;;
81697;SDS011;71109;52.514;5.708;2023-12-22T06:47:48;15.70;;;2.67;;
81697;SDS011;71109;52.514;5.708;2023-12-22T06:50:13;9.13;;;1.40;;
81697;SDS011;71109;52.514;5.708;2023-12-22T06:52:38;7.57;;;1.20;;
81697;SDS011;71109;52.514;5.708;2023-12-22T06:55:04;7.38;;;1.85;;
81697;SDS011;71109;52.514;5.708;2023-12-22T06:57:30;6.90;;;1.45;;
81697;SDS011;71109;52.514;5.708;2023-12-22T06:59:55;9.80;;;1.73;;
81697;SDS011;71109;52.514;5.708;2023-12-22T07:02:21;5.40;;;1.35;;
81697;SDS011;71109;52.514;5.708;2023-12-22T07:07:50;16.40;;;2.15;;
81697;SDS011;71109;52.514;5.708;2023-12-22T07:10:18;7.75;;;1.65;;
81697;SDS011;71109;52.514;5.708;2023-12-22T07:12:43;7.90;;;1.85;;
81697;SDS011;71109;52.514;5.708;2023-12-22T07:15:09;15.00;;;2.43;;
81697;SDS011;71109;52.514;5.708;2023-12-22T07:17:34;10.70;;;1.77;;
81697;SDS011;71109;52.514;5.708;2023-12-22T07:20:00;13.50;;;1.77;;
81697;SDS011;71109;52.514;5.708;2023-12-22T07:22:28;8.90;;;1.70;;
81697;SDS011;71109;52.514;5.708;2023-12-22T07:24:53;10.57;;;2.13;;
81697;SDS011;71109;52.514;5.708;2023-12-22T07:27:20;10.57;;;2.33;;
81697;SDS011;71109;52.514;5.708;2023-12-22T07:29:45;15.63;;;1.75;;
81697;SDS011;71109;52.514;5.708;2023-12-22T07:32:11;9.97;;;1.60;;
81697;SDS011;71109;52.514;5.708;2023-12-22T07:34:37;10.77;;;2.08;;
81697;SDS011;71109;52.514;5.708;2023-12-22T07:37:02;14.93;;;1.57;;
81697;SDS011;71109;52.514;5.708;2023-12-22T07:39:29;14.25;;;2.30;;
81697;SDS011;71109;52.514;5.708;2023-12-22T07:41:55;14.88;;;1.67;;
81697;SDS011;71109;52.514;5.708;2023-12-22T07:44:20;11.60;;;1.40;;
81697;SDS011;71109;52.514;5.708;2023-12-22T07:46:49;12.23;;;1.93;;
81697;SDS011;71109;52.514;5.708;2023-12-22T07:49:26;22.58;;;2.20;;
81697;SDS011;71109;52.514;5.708;2023-12-22T07:51:52;15.38;;;2.08;;
81697;SDS011;71109;52.514;5.708;2023-12-22T07:54:17;11.68;;;1.83;;
81697;SDS011;71109;52.514;5.708;2023-12-22T07:56:43;9.15;;;2.22;;
81697;SDS011;71109;52.514;5.708;2023-12-22T07:59:09;19.23;;;2.78;;
81697;SDS011;71109;52.514;5.708;2023-12-22T08:01:34;4.22;;;1.75;;
81697;SDS011;71109;52.514;5.708;2023-12-22T08:03:59;18.20;;;2.28;;
81697;SDS011;71109;52.514;5.708;2023-12-22T08:06:25;18.30;;;2.67;;
81697;SDS011;71109;52.514;5.708;2023-12-22T08:08:50;11.63;;;2.22;;
81697;SDS011;71109;52.514;5.708;2023-12-22T08:11:15;22.38;;;2.55;;
81697;SDS011;71109;52.514;5.708;2023-12-22T08:13:41;11.40;;;1.83;;
81697;SDS011;71109;52.514;5.708;2023-12-22T08:16:06;16.70;;;3.13;;
81697;SDS011;71109;52.514;5.708;2023-12-22T08:18:31;25.55;;;4.05;;
81697;SDS011;71109;52.514;5.708;2023-12-22T08:20:57;15.38;;;2.83;;
81697;SDS011;71109;52.514;5.708;2023-12-22T08:23:22;18.70;;;2.57;;
81697;SDS011;71109;52.514;5.708;2023-12-22T08:25:47;18.50;;;2.97;;
81697;SDS011;71109;52.514;5.708;2023-12-22T08:28:13;17.90;;;2.77;;
81697;SDS011;71109;52.514;5.708;2023-12-22T08:30:38;19.90;;;2.65;;
81697;SDS011;71109;52.514;5.708;2023-12-22T08:33:04;18.30;;;3.28;;
81697;SDS011;71109;52.514;5.708;2023-12-22T08:35:29;12.77;;;3.25;;
81697;SDS011;71109;52.514;5.708;2023-12-22T08:37:55;10.82;;;2.08;;
81697;SDS011;71109;52.514;5.708;2023-12-22T08:40:21;15.75;;;3.35;;
81697;SDS011;71109;52.514;5.708;2023-12-22T08:42:51;17.88;;;2.40;;
81697;SDS011;71109;52.514;5.708;2023-12-22T08:45:19;28.45;;;3.80;;
81697;SDS011;71109;52.514;5.708;2023-12-22T08:47:46;27.70;;;3.90;;
81697;SDS011;71109;52.514;5.708;2023-12-22T08:50:11;22.87;;;4.63;;
81697;SDS011;71109;52.514;5.708;2023-12-22T08:52:37;20.65;;;4.28;;
81697;SDS011;71109;52.514;5.708;2023-12-22T08:55:03;15.75;;;2.33;;
81697;SDS011;71109;52.514;5.708;2023-12-22T08:57:30;21.73;;;3.30;;
81697;SDS011;71109;52.514;5.708;2023-12-22T08:59:56;17.27;;;2.85;;
81697;SDS011;71109;52.514;5.708;2023-12-22T09:02:22;22.05;;;4.75;;
81697;SDS011;71109;52.514;5.708;2023-12-22T09:04:47;22.97;;;3.50;;
81697;SDS011;71109;52.514;5.708;2023-12-22T09:07:12;23.35;;;3.95;;
81697;SDS011;71109;52.514;5.708;2023-12-22T09:09:38;18.50;;;2.80;;
81697;SDS011;71109;52.514;5.708;2023-12-22T09:12:03;20.65;;;3.08;;
81697;SDS011;71109;52.514;5.708;2023-12-22T09:14:29;12.45;;;2.13;;
81697;SDS011;71109;52.514;5.708;2023-12-22T09:16:55;22.58;;;2.92;;
81697;SDS011;71109;52.514;5.708;2023-12-22T09:19:21;17.02;;;3.47;;
81697;SDS011;71109;52.514;5.708;2023-12-22T09:21:46;19.52;;;4.70;;
81697;SDS011;71109;52.514;5.708;2023-12-22T09:24:12;26.60;;;4.57;;
81697;SDS011;71109;52.514;5.708;2023-12-22T09:26:37;16.00;;;2.80;;
81697;SDS011;71109;52.514;5.708;2023-12-22T09:29:02;22.60;;;4.13;;
81697;SDS011;71109;52.514;5.708;2023-12-22T09:31:28;36.08;;;5.95;;
81697;SDS011;71109;52.514;5.708;2023-12-22T09:33:53;19.27;;;3.58;;
81697;SDS011;71109;52.514;5.708;2023-12-22T09:36:18;18.07;;;3.63;;
81697;SDS011;71109;52.514;5.708;2023-12-22T09:38:44;27.88;;;5.30;;
81697;SDS011;71109;52.514;5.708;2023-12-22T09:41:09;19.20;;;3.50;;
81697;SDS011;71109;52.514;5.708;2023-12-22T09:43:35;22.73;;;3.58;;
81697;SDS011;71109;52.514;5.708;2023-12-22T09:46:04;15.02;;;3.13;;
81697;SDS011;71109;52.514;5.708;2023-12-22T09:48:30;16.30;;;3.38;;
81697;SDS011;71109;52.514;5.708;2023-12-22T09:50:56;20.75;;;2.85;;
81697;SDS011;71109;52.514;5.708;2023-12-22T09:53:22;15.63;;;2.90;;
81697;SDS011;71109;52.514;5.708;2023-12-22T09:55:49;14.52;;;2.22;;
81697;SDS011;71109;52.514;5.708;2023-12-22T09:58:15;18.17;;;4.35;;
81697;SDS011;71109;52.514;5.708;2023-12-22T10:00:41;16.08;;;2.50;;
81697;SDS011;71109;52.514;5.708;2023-12-22T10:03:07;10.55;;;2.13;;
81697;SDS011;71109;52.514;5.708;2023-12-22T10:05:34;20.63;;;2.13;;
81697;SDS011;71109;52.514;5.708;2023-12-22T10:08:00;7.83;;;2.07;;
81697;SDS011;71109;52.514;5.708;2023-12-22T10:10:29;10.18;;;1.67;;
81697;SDS011;71109;52.514;5.708;2023-12-22T10:12:55;12.43;;;2.78;;
81697;SDS011;71109;52.514;5.708;2023-12-22T10:15:21;12.68;;;2.30;;
81697;SDS011;71109;52.514;5.708;2023-12-22T10:17:52;16.70;;;2.17;;
81697;SDS011;71109;52.514;5.708;2023-12-22T10:20:18;16.23;;;2.58;;
81697;SDS011;71109;52.514;5.708;2023-12-22T10:22:43;14.73;;;1.77;;
81697;SDS011;71109;52.514;5.708;2023-12-22T10:25:09;15.43;;;2.45;;
81697;SDS011;71109;52.514;5.708;2023-12-22T10:27:37;13.90;;;2.58;;
81697;SDS011;71109;52.514;5.708;2023-12-22T10:30:03;16.42;;;2.70;;
81697;SDS011;71109;52.514;5.708;2023-12-22T10:32:28;17.15;;;1.77;;
81697;SDS011;71109;52.514;5.708;2023-12-22T10:34:54;11.25;;;2.10;;
81697;SDS011;71109;52.514;5.708;2023-12-22T10:37:22;7.55;;;1.80;;
81697;SDS011;71109;52.514;5.708;2023-12-22T10:39:48;5.93;;;1.60;;
81697;SDS011;71109;52.514;5.708;2023-12-22T10:42:17;3.60;;;0.57;;
81697;SDS011;71109;52.514;5.708;2023-12-22T10:44:42;5.28;;;0.82;;
81697;SDS011;71109;52.514;5.708;2023-12-22T10:47:08;2.25;;;0.40;;
81697;SDS011;71109;52.514;5.708;2023-12-22T10:49:33;1.13;;;0.30;;
81697;SDS011;71109;52.514;5.708;2023-12-22T10:51:59;0.93;;;0.32;;
81697;SDS011;71109;52.514;5.708;2023-12-22T10:54:24;0.55;;;0.20;;
81697;SDS011;71109;52.514;5.708;2023-12-22T10:56:49;0.95;;;0.40;;
81697;SDS011;71109;52.514;5.708;2023-12-22T10:59:18;2.97;;;0.50;;
81697;SDS011;71109;52.514;5.708;2023-12-22T11:01:44;4.07;;;0.50;;
81697;SDS011;71109;52.514;5.708;2023-12-22T11:04:12;2.58;;;0.60;;
81697;SDS011;71109;52.514;5.708;2023-12-22T11:06:41;4.15;;;0.50;;
81697;SDS011;71109;52.514;5.708;2023-12-22T11:09:08;2.55;;;0.30;;
81697;SDS011;71109;52.514;5.708;2023-12-22T11:11:34;5.03;;;0.60;;
81697;SDS011;71109;52.514;5.708;2023-12-22T11:14:01;4.15;;;0.80;;
81697;SDS011;71109;52.514;5.708;2023-12-22T11:16:27;2.05;;;0.45;;
81697;SDS011;71109;52.514;5.708;2023-12-22T11:18:54;2.13;;;0.35;;
81697;SDS011;71109;52.514;5.708;2023-12-22T11:21:22;5.88;;;1.30;;
81697;SDS011;71109;52.514;5.708;2023-12-22T11:23:52;5.20;;;0.82;;
81697;SDS011;71109;52.514;5.708;2023-12-22T11:26:18;4.10;;;0.65;;
81697;SDS011;71109;52.514;5.708;2023-12-22T11:28:46;5.30;;;0.90;;
81697;SDS011;71109;52.514;5.708;2023-12-22T11:31:12;4.28;;;0.88;;
81697;SDS011;71109;52.514;5.708;2023-12-22T11:33:39;10.32;;;0.85;;
81697;SDS011;71109;52.514;5.708;2023-12-22T11:36:05;6.78;;;1.00;;
81697;SDS011;71109;52.514;5.708;2023-12-22T11:38:31;10.35;;;1.60;;
81697;SDS011;71109;52.514;5.708;2023-12-22T11:40:57;6.80;;;1.33;;
81697;SDS011;71109;52.514;5.708;2023-12-22T11:43:23;11.13;;;1.40;;
81697;SDS011;71109;52.514;5.708;2023-12-22T11:45:49;8.05;;;1.25;;
81697;SDS011;71109;52.514;5.708;2023-12-22T11:48:15;9.32;;;1.13;;
81697;SDS011;71109;52.514;5.708;2023-12-22T11:50:41;8.93;;;1.30;;
81697;SDS011;71109;52.514;5.708;2023-12-22T11:53:22;13.50;;;2.00;;
81697;SDS011;71109;52.514;5.708;2023-12-22T11:55:56;9.05;;;1.58;;
81697;SDS011;71109;52.514;5.708;2023-12-22T11:58:47;9.48;;;2.50;;
81697;SDS011;71109;52.514;5.708;2023-12-22T12:01:20;13.20;;;2.70;;
81697;SDS011;71109;52.514;5.708;2023-12-22T12:03:53;16.58;;;1.98;;
81697;SDS011;71109;52.514;5.708;2023-12-22T12:08:52;15.73;;;3.35;;
81697;SDS011;71109;52.514;5.708;2023-12-22T12:11:18;10.35;;;1.48;;
81697;SDS011;71109;52.514;5.708;2023-12-22T12:13:47;13.00;;;2.25;;
81697;SDS011;71109;52.514;5.708;2023-12-22T12:16:13;23.77;;;2.65;;
81697;SDS011;71109;52.514;5.708;2023-12-22T12:18:39;13.32;;;2.40;;
81697;SDS011;71109;52.514;5.708;2023-12-22T12:21:08;12.57;;;1.60;;
81697;SDS011;71109;52.514;5.708;2023-12-22T12:23:35;12.93;;;1.88;;
81697;SDS011;71109;52.514;5.708;2023-12-22T12:26:00;3.33;;;1.00;;
81697;SDS011;71109;52.514;5.708;2023-12-22T12:28:26;8.10;;;1.30;;
81697;SDS011;71109;52.514;5.708;2023-12-22T12:30:57;7.43;;;1.55;;
81697;SDS011;71109;52.514;5.708;2023-12-22T12:33:26;6.32;;;2.00;;
81697;SDS011;71109;52.514;5.708;2023-12-22T12:35:52;6.90;;;1.38;;
81697;SDS011;71109;52.514;5.708;2023-12-22T12:38:23;2.83;;;0.75;;
81697;SDS011;71109;52.514;5.708;2023-12-22T12:41:03;2.50;;;0.73;;
81697;SDS011;71109;52.514;5.708;2023-12-22T12:43:30;3.65;;;1.25;;
81697;SDS011;71109;52.514;5.708;2023-12-22T12:45:55;1.23;;;0.50;;
81697;SDS011;71109;52.514;5.708;2023-12-22T12:48:20;1.70;;;0.67;;
81697;SDS011;71109;52.514;5.708;2023-12-22T12:50:49;3.22;;;0.60;;
81697;SDS011;71109;52.514;5.708;2023-12-22T12:53:14;2.08;;;0.70;;
81697;SDS011;71109;52.514;5.708;2023-12-22T12:55:39;8.63;;;1.42;;
81697;SDS011;71109;52.514;5.708;2023-12-22T12:58:05;7.15;;;1.30;;
81697;SDS011;71109;52.514;5.708;2023-12-22T13:00:32;6.80;;;0.80;;
81697;SDS011;71109;52.514;5.708;2023-12-22T13:03:01;5.55;;;0.90;;
81697;SDS011;71109;52.514;5.708;2023-12-22T13:05:30;4.07;;;1.05;;
81697;SDS011;71109;52.514;5.708;2023-12-22T13:08:09;2.45;;;0.82;;
81697;SDS011;71109;52.514;5.708;2023-12-22T13:10:35;2.58;;;1.25;;
81697;SDS011;71109;52.514;5.708;2023-12-22T13:13:00;7.65;;;1.67;;
81697;SDS011;71109;52.514;5.708;2023-12-22T13:15:26;8.95;;;1.52;;
81697;SDS011;71109;52.514;5.708;2023-12-22T13:17:51;15.57;;;2.00;;
81697;SDS011;71109;52.514;5.708;2023-12-22T13:20:17;26.30;;;4.28;;
81697;SDS011;71109;52.514;5.708;2023-12-22T13:22:43;23.35;;;3.50;;
81697;SDS011;71109;52.514;5.708;2023-12-22T13:25:08;16.25;;;1.83;;
81697;SDS011;71109;52.514;5.708;2023-12-22T13:27:46;13.63;;;2.50;;
81697;SDS011;71109;52.514;5.708;2023-12-22T13:30:12;17.50;;;2.03;;
81697;SDS011;71109;52.514;5.708;2023-12-22T13:32:40;14.70;;;2.75;;
81697;SDS011;71109;52.514;5.708;2023-12-22T13:35:06;14.45;;;2.00;;
81697;SDS011;71109;52.514;5.708;2023-12-22T13:37:32;12.07;;;2.03;;
81697;SDS011;71109;52.514;5.708;2023-12-22T13:39:57;20.60;;;2.75;;
81697;SDS011;71109;52.514;5.708;2023-12-22T13:42:23;19.02;;;2.78;;
81697;SDS011;71109;52.514;5.708;2023-12-22T13:44:49;18.02;;;3.28;;
81697;SDS011;71109;52.514;5.708;2023-12-22T13:47:15;11.73;;;2.22;;
81697;SDS011;71109;52.514;5.708;2023-12-22T13:49:41;12.43;;;2.30;;
81697;SDS011;71109;52.514;5.708;2023-12-22T13:52:07;18.90;;;2.38;;
81697;SDS011;71109;52.514;5.708;2023-12-22T13:54:33;25.58;;;4.22;;
81697;SDS011;71109;52.514;5.708;2023-12-22T13:56:59;7.78;;;1.95;;
81697;SDS011;71109;52.514;5.708;2023-12-22T13:59:34;24.85;;;2.88;;
81697;SDS011;71109;52.514;5.708;2023-12-22T14:01:59;13.90;;;2.13;;
81697;SDS011;71109;52.514;5.708;2023-12-22T14:04:25;13.82;;;3.15;;
81697;SDS011;71109;52.514;5.708;2023-12-22T14:06:51;11.85;;;2.38;;
81697;SDS011;71109;52.514;5.708;2023-12-22T14:09:16;17.25;;;2.97;;
81697;SDS011;71109;52.514;5.708;2023-12-22T14:11:46;12.90;;;2.63;;
81697;SDS011;71109;52.514;5.708;2023-12-22T14:14:12;16.48;;;2.28;;
81697;SDS011;71109;52.514;5.708;2023-12-22T14:16:38;12.40;;;1.77;;
81697;SDS011;71109;52.514;5.708;2023-12-22T14:19:03;15.43;;;1.90;;
81697;SDS011;71109;52.514;5.708;2023-12-22T14:21:28;9.13;;;2.23;;
81697;SDS011;71109;52.514;5.708;2023-12-22T14:23:53;17.87;;;3.50;;
81697;SDS011;71109;52.514;5.708;2023-12-22T14:26:19;10.00;;;1.63;;
81697;SDS011;71109;52.514;5.708;2023-12-22T14:28:45;16.35;;;3.55;;
81697;SDS011;71109;52.514;5.708;2023-12-22T14:31:15;11.23;;;1.85;;
81697;SDS011;71109;52.514;5.708;2023-12-22T14:33:41;6.50;;;1.60;;
81697;SDS011;71109;52.514;5.708;2023-12-22T14:36:06;18.97;;;2.40;;
81697;SDS011;71109;52.514;5.708;2023-12-22T14:38:32;10.73;;;1.60;;
81697;SDS011;71109;52.514;5.708;2023-12-22T14:40:57;14.35;;;2.33;;
81697;SDS011;71109;52.514;5.708;2023-12-22T14:43:22;13.37;;;2.87;;